Time;durP1;ratioP1;P1;durP2;ratioP2;P2;SDS_P1;SDS_P2;PMS_P1;PMS_P2;Temp;Humidity;BMP_temperature;BMP_pressure;BME280_temperature;BME280_humidity;BME280_pressure;Samples;Min_cycle;Max_cycle;Signal;HPM_P1;HPM_P2
2021/03/09 00:00:09;;;;;;;37.67;17.42;;;8.70;99.90;;;;;;6243732;23;20449;-72
2021/03/09 00:02:35;;;;;;;35.90;18.52;;;8.60;99.90;;;;;;6243898;23;20011;-72
2021/03/09 00:05:01;;;;;;;35.15;18.10;;;8.60;99.90;;;;;;6244855;23;19996;-72
2021/03/09 00:07:27;;;;;;;31.73;17.65;;;8.60;99.90;;;;;;6244629;23;20079;-72
2021/03/09 00:09:53;;;;;;;29.25;17.83;;;8.60;99.90;;;;;;6243989;23;20075;-72
2021/03/09 00:12:19;;;;;;;32.63;18.00;;;8.60;99.90;;;;;;6243763;23;20008;-73
2021/03/09 00:14:44;;;;;;;31.23;19.25;;;8.50;99.90;;;;;;6244040;23;20066;-72
2021/03/09 00:17:10;;;;;;;28.83;18.50;;;8.50;99.90;;;;;;6243274;23;20004;-72
2021/03/09 00:19:36;;;;;;;29.05;17.90;;;8.50;99.90;;;;;;6243089;23;20050;-72
2021/03/09 00:22:01;;;;;;;37.13;19.52;;;8.50;99.90;;;;;;6243542;23;20465;-72
2021/03/09 00:24:27;;;;;;;33.15;18.60;;;8.50;99.90;;;;;;6243117;23;20008;-72
2021/03/09 00:26:53;;;;;;;36.50;18.23;;;8.50;99.90;;;;;;6243359;23;20092;-72
2021/03/09 00:29:18;;;;;;;32.03;19.08;;;8.40;99.90;;;;;;6243452;23;20000;-74
2021/03/09 00:31:44;;;;;;;30.58;17.55;;;8.30;99.90;;;;;;6243347;23;20126;-72
2021/03/09 00:34:10;;;;;;;28.83;18.38;;;8.20;99.90;;;;;;6242805;23;20031;-73
2021/03/09 00:36:35;;;;;;;31.83;17.83;;;8.20;99.90;;;;;;6241670;23;20004;-74
2021/03/09 00:39:02;;;;;;;49.33;18.85;;;8.20;99.90;;;;;;6241081;23;20007;-74
2021/03/09 00:41:27;;;;;;;30.70;17.85;;;8.20;99.90;;;;;;6242701;23;20024;-72
2021/03/09 00:43:53;;;;;;;27.70;16.50;;;8.20;99.90;;;;;;6243069;23;20027;-72
2021/03/09 00:46:19;;;;;;;26.90;17.02;;;8.20;99.90;;;;;;6243756;23;20325;-74
2021/03/09 00:48:44;;;;;;;32.63;17.48;;;8.20;99.90;;;;;;6243223;23;20083;-74
2021/03/09 00:51:10;;;;;;;30.95;17.10;;;8.20;99.90;;;;;;6243591;23;20640;-72
2021/03/09 00:53:37;;;;;;;29.10;16.83;;;8.20;99.90;;;;;;6243011;23;20031;-72
2021/03/09 00:56:02;;;;;;;29.42;17.63;;;8.20;99.90;;;;;;6243103;23;20004;-74
2021/03/09 00:58:28;;;;;;;37.92;18.08;;;8.20;99.90;;;;;;6243327;23;20440;-74
2021/03/09 01:00:55;;;;;;;32.90;17.23;;;8.10;99.90;;;;;;6242201;23;20027;-72
2021/03/09 01:03:20;;;;;;;28.63;16.70;;;8.00;99.90;;;;;;6242882;23;20003;-74
2021/03/09 01:05:46;;;;;;;25.50;16.65;;;8.00;99.90;;;;;;6242855;23;20001;-72
2021/03/09 01:08:12;;;;;;;28.17;16.95;;;8.00;99.90;;;;;;6243687;23;20011;-74
2021/03/09 01:10:39;;;;;;;38.33;17.23;;;8.00;99.90;;;;;;6245131;23;20000;-72
2021/03/09 01:13:05;;;;;;;25.77;14.50;;;8.00;99.90;;;;;;6244828;23;20470;-72
2021/03/09 01:15:30;;;;;;;26.40;16.17;;;7.90;99.90;;;;;;6244959;23;20080;-72
2021/03/09 01:17:56;;;;;;;30.00;15.30;;;7.90;99.90;;;;;;6244834;23;20432;-72
2021/03/09 01:20:23;;;;;;;27.27;14.77;;;8.00;99.90;;;;;;6245292;23;19995;-73
2021/03/09 01:22:48;;;;;;;23.40;14.32;;;8.00;99.90;;;;;;6245174;23;20008;-72
2021/03/09 01:25:14;;;;;;;31.20;14.27;;;8.00;99.90;;;;;;6244657;23;20035;-72
2021/03/09 01:27:40;;;;;;;21.00;13.95;;;8.00;99.90;;;;;;6244810;23;20004;-72
2021/03/09 01:30:09;;;;;;;23.45;13.90;;;8.00;99.90;;;;;;6245103;23;20055;-72
2021/03/09 01:32:35;;;;;;;21.27;12.82;;;8.00;99.90;;;;;;6244762;23;20345;-72
2021/03/09 01:35:02;;;;;;;22.00;12.38;;;8.00;99.90;;;;;;6244477;23;20002;-72
2021/03/09 01:37:27;;;;;;;27.55;14.63;;;7.90;99.90;;;;;;6244700;23;20000;-74
2021/03/09 01:39:53;;;;;;;17.35;11.75;;;8.00;99.90;;;;;;6244781;23;20043;-74
2021/03/09 01:42:19;;;;;;;22.48;12.50;;;8.00;99.90;;;;;;6244017;23;20008;-74
2021/03/09 01:44:45;;;;;;;24.83;11.90;;;8.00;99.90;;;;;;6244557;23;20058;-72
2021/03/09 01:47:11;;;;;;;28.65;12.45;;;7.90;99.90;;;;;;6244618;23;20015;-74
2021/03/09 01:49:39;;;;;;;25.42;11.80;;;7.90;99.90;;;;;;6217433;23;20035;-72
2021/03/09 01:52:07;;;;;;;26.55;12.52;;;7.90;99.90;;;;;;6243980;23;20007;-72
2021/03/09 01:54:34;;;;;;;24.70;11.73;;;7.90;99.90;;;;;;6244099;23;20004;-72
2021/03/09 01:57:00;;;;;;;23.75;12.50;;;7.90;99.90;;;;;;6245112;23;20024;-74
2021/03/09 01:59:27;;;;;;;17.38;11.75;;;7.90;99.90;;;;;;6244825;23;20602;-72
2021/03/09 02:01:53;;;;;;;19.48;12.00;;;7.90;99.90;;;;;;6244723;23;20337;-72
2021/03/09 02:04:19;;;;;;;22.38;12.10;;;7.90;99.90;;;;;;6244658;23;20000;-72
2021/03/09 02:06:45;;;;;;;18.02;11.95;;;7.80;99.90;;;;;;6244172;23;20003;-72
2021/03/09 02:09:12;;;;;;;20.25;11.27;;;7.80;99.90;;;;;;6244456;23;19996;-72
2021/03/09 02:12:02;;;;;;;20.83;11.73;;;7.80;99.90;;;;;;6244524;23;20079;-72
2021/03/09 02:14:48;;;;;;;18.95;11.80;;;7.80;99.90;;;;;;6244897;23;20012;-72
2021/03/09 02:17:44;;;;;;;20.77;12.63;;;7.80;99.90;;;;;;6244918;23;20058;-73
2021/03/09 02:20:18;;;;;;;16.83;11.32;;;7.80;99.90;;;;;;6190266;23;20012;-73
2021/03/09 02:23:09;;;;;;;36.47;13.18;;;7.70;99.90;;;;;;6244884;23;20067;-72
2021/03/09 02:25:37;;;;;;;25.27;13.13;;;7.70;99.90;;;;;;6244964;23;20000;-72
2021/03/09 02:28:27;;;;;;;17.80;12.25;;;7.70;99.90;;;;;;6244330;23;20034;-72
2021/03/09 02:30:56;;;;;;;17.23;11.32;;;7.70;99.90;;;;;;6244539;23;20004;-73
2021/03/09 02:33:38;;;;;;;26.55;11.68;;;7.70;99.90;;;;;;6244177;23;20004;-73
2021/03/09 02:36:08;;;;;;;21.02;12.27;;;7.60;99.90;;;;;;6244798;23;20000;-72
2021/03/09 02:38:45;;;;;;;28.73;12.75;;;7.60;99.90;;;;;;6217568;23;20012;-72
2021/03/09 02:41:13;;;;;;;21.05;12.40;;;7.50;99.90;;;;;;6244746;23;20012;-73
2021/03/09 02:43:43;;;;;;;18.30;12.10;;;7.50;99.90;;;;;;6244547;23;20459;-72
2021/03/09 02:46:09;;;;;;;19.45;12.13;;;7.50;99.90;;;;;;6245131;23;20062;-72
2021/03/09 02:48:36;;;;;;;20.95;12.98;;;7.40;99.90;;;;;;6244046;23;20452;-72
2021/03/09 02:51:03;;;;;;;23.13;12.60;;;7.40;99.90;;;;;;6244557;23;20005;-73
2021/03/09 02:53:32;;;;;;;21.77;12.60;;;7.40;99.90;;;;;;6244092;23;20018;-72
2021/03/09 02:56:01;;;;;;;19.70;12.32;;;7.40;99.90;;;;;;6244097;23;20063;-73
2021/03/09 02:58:30;;;;;;;22.30;12.88;;;7.40;99.90;;;;;;6242662;23;20004;-72
2021/03/09 03:00:56;;;;;;;20.08;13.07;;;7.40;99.90;;;;;;6244421;23;20020;-72
2021/03/09 03:03:23;;;;;;;23.65;12.57;;;7.30;99.90;;;;;;6243965;23;20008;-72
2021/03/09 03:05:49;;;;;;;25.23;13.05;;;7.30;99.90;;;;;;6243996;23;20004;-72
2021/03/09 03:08:16;;;;;;;26.60;12.32;;;7.30;99.90;;;;;;6244208;23;20085;-72
2021/03/09 03:10:44;;;;;;;22.17;12.80;;;7.30;99.90;;;;;;6244630;23;20418;-72
2021/03/09 03:13:12;;;;;;;25.70;13.05;;;7.30;99.90;;;;;;6244867;23;20020;-72
2021/03/09 03:15:39;;;;;;;22.98;13.15;;;7.30;99.90;;;;;;6243903;23;19997;-72
2021/03/09 03:18:08;;;;;;;18.38;11.02;;;7.30;99.90;;;;;;6243436;23;20030;-72
2021/03/09 03:20:35;;;;;;;25.17;13.13;;;7.20;99.90;;;;;;6217784;23;20039;-72
2021/03/09 03:23:02;;;;;;;19.05;12.13;;;7.20;99.90;;;;;;6244534;23;20004;-72
2021/03/09 03:25:28;;;;;;;24.08;13.32;;;7.20;99.90;;;;;;6244472;23;20078;-73
2021/03/09 03:27:55;;;;;;;20.38;12.23;;;7.20;99.90;;;;;;6244067;23;20015;-72
2021/03/09 03:30:22;;;;;;;19.73;12.15;;;7.20;99.90;;;;;;6244110;23;20000;-72
2021/03/09 03:32:48;;;;;;;25.83;12.90;;;7.10;99.90;;;;;;6242931;23;20429;-73
2021/03/09 03:35:15;;;;;;;31.85;12.82;;;7.10;99.90;;;;;;6243950;23;20006;-72
2021/03/09 03:37:42;;;;;;;20.33;12.00;;;7.10;99.90;;;;;;6244349;23;20007;-72
2021/03/09 03:40:17;;;;;;;22.27;11.57;;;7.20;99.90;;;;;;6243496;23;20004;-72
2021/03/09 03:42:44;;;;;;;22.63;12.38;;;7.20;99.90;;;;;;6243934;23;20075;-73
2021/03/09 03:45:11;;;;;;;24.10;13.43;;;7.10;99.90;;;;;;6243051;23;20531;-72
2021/03/09 03:47:38;;;;;;;21.70;12.48;;;7.20;99.90;;;;;;6216074;23;20660;-73
2021/03/09 03:50:05;;;;;;;23.70;11.95;;;7.20;99.90;;;;;;6243333;23;20000;-73
2021/03/09 03:53:22;;;;;;;34.63;12.30;;;7.20;99.90;;;;;;6243737;23;20429;-72
2021/03/09 03:55:59;;;;;;;20.25;12.25;;;7.10;99.90;;;;;;6135475;23;20047;-73
2021/03/09 03:58:32;;;;;;;30.13;12.23;;;7.10;99.90;;;;;;6244232;23;20012;-74
2021/03/09 04:00:59;;;;;;;22.83;12.30;;;7.10;99.90;;;;;;6217152;23;20001;-72
2021/03/09 04:03:27;;;;;;;23.58;12.50;;;7.10;99.90;;;;;;6216967;23;20088;-72
2021/03/09 04:05:54;;;;;;;26.40;12.95;;;7.10;99.90;;;;;;6243699;23;20008;-72
2021/03/09 04:08:21;;;;;;;20.10;12.57;;;7.10;99.90;;;;;;6243321;23;19997;-72
2021/03/09 04:10:49;;;;;;;19.33;12.85;;;7.10;99.90;;;;;;6243856;23;20000;-72
2021/03/09 04:13:17;;;;;;;25.27;12.88;;;7.10;99.90;;;;;;6243784;23;20311;-72
2021/03/09 04:15:43;;;;;;;22.10;13.23;;;7.10;99.90;;;;;;6243664;23;20019;-72
2021/03/09 04:18:11;;;;;;;21.50;13.00;;;7.10;99.90;;;;;;6243483;23;20004;-74
2021/03/09 04:20:40;;;;;;;19.23;12.07;;;7.00;99.90;;;;;;6243896;23;20050;-72
2021/03/09 04:23:06;;;;;;;20.70;12.05;;;7.00;99.90;;;;;;6243790;23;20075;-72
2021/03/09 04:25:38;;;;;;;20.23;12.70;;;7.00;99.90;;;;;;6243450;23;20035;-72
2021/03/09 04:28:04;;;;;;;22.58;12.60;;;7.00;99.90;;;;;;6243755;23;20368;-72
2021/03/09 04:30:32;;;;;;;19.67;12.82;;;7.00;99.90;;;;;;6243650;23;20000;-73
2021/03/09 04:32:58;;;;;;;21.60;12.98;;;6.90;99.90;;;;;;6244194;23;20043;-72
2021/03/09 04:35:25;;;;;;;25.02;12.77;;;7.00;99.90;;;;;;6216845;23;20008;-72
2021/03/09 04:37:50;;;;;;;20.70;12.48;;;6.90;99.90;;;;;;6243768;23;20004;-72
2021/03/09 04:40:17;;;;;;;28.50;13.93;;;6.90;99.90;;;;;;6243169;23;20482;-72
2021/03/09 04:42:42;;;;;;;20.50;12.70;;;6.90;99.90;;;;;;6242124;23;20004;-72
2021/03/09 04:45:11;;;;;;;24.30;13.20;;;6.90;99.90;;;;;;6243496;23;20456;-72
2021/03/09 04:47:37;;;;;;;19.92;12.43;;;6.90;99.90;;;;;;6243370;23;20027;-73
2021/03/09 04:50:08;;;;;;;22.20;13.45;;;6.90;99.90;;;;;;6243552;23;20325;-72
2021/03/09 04:52:34;;;;;;;19.55;12.68;;;6.80;99.90;;;;;;6243108;23;20130;-72
2021/03/09 04:55:02;;;;;;;23.23;13.63;;;6.80;99.90;;;;;;6243666;23;20075;-72
2021/03/09 04:57:40;;;;;;;28.33;13.43;;;6.80;99.90;;;;;;6243656;23;20012;-73
2021/03/09 05:00:09;;;;;;;22.00;13.95;;;6.80;99.90;;;;;;6243247;23;20071;-72
2021/03/09 05:02:35;;;;;;;20.63;13.43;;;6.70;99.90;;;;;;6242776;23;20004;-72
2021/03/09 05:05:01;;;;;;;24.17;12.85;;;6.70;99.90;;;;;;6243723;23;20007;-73
2021/03/09 05:07:26;;;;;;;26.63;14.07;;;6.70;99.90;;;;;;6243731;23;20004;-72
2021/03/09 05:09:52;;;;;;;25.60;14.38;;;6.70;99.90;;;;;;6243143;23;20000;-72
2021/03/09 05:12:18;;;;;;;32.50;13.88;;;6.60;99.90;;;;;;6216364;23;20012;-72
2021/03/09 05:14:44;;;;;;;20.90;14.43;;;6.60;99.90;;;;;;6243255;23;20000;-72
2021/03/09 05:17:09;;;;;;;30.42;14.10;;;6.60;99.90;;;;;;6243245;23;20004;-72
2021/03/09 05:19:35;;;;;;;29.08;13.55;;;6.60;99.90;;;;;;6242705;23;20000;-73
2021/03/09 05:22:01;;;;;;;20.73;13.13;;;6.60;99.90;;;;;;6242600;23;20004;-72
2021/03/09 05:24:27;;;;;;;22.58;13.38;;;6.60;99.90;;;;;;6242508;23;20007;-73
2021/03/09 05:26:54;;;;;;;21.45;13.55;;;6.60;99.90;;;;;;6242546;23;20006;-73
2021/03/09 05:29:19;;;;;;;21.33;12.90;;;6.60;99.90;;;;;;6215958;23;20083;-72
2021/03/09 05:31:45;;;;;;;25.92;14.15;;;6.50;99.90;;;;;;6215558;23;20440;-72
2021/03/09 05:34:11;;;;;;;26.23;14.35;;;6.50;99.90;;;;;;6242912;23;20083;-72
2021/03/09 05:36:37;;;;;;;24.80;14.57;;;6.50;99.90;;;;;;6242575;23;20004;-72
2021/03/09 05:39:03;;;;;;;21.95;13.82;;;6.40;99.90;;;;;;6242894;23;20008;-73
2021/03/09 05:41:29;;;;;;;20.90;14.18;;;6.40;99.90;;;;;;6242889;23;20474;-73
2021/03/09 05:43:55;;;;;;;28.63;15.15;;;6.40;99.90;;;;;;6242711;23;20008;-72
2021/03/09 05:46:21;;;;;;;27.20;14.75;;;6.40;99.90;;;;;;6242556;23;20008;-72
2021/03/09 05:48:47;;;;;;;36.42;14.05;;;6.40;99.90;;;;;;6242313;23;20080;-72
2021/03/09 05:51:14;;;;;;;23.88;14.65;;;6.40;99.90;;;;;;6242993;23;20028;-72
2021/03/09 05:53:40;;;;;;;26.52;15.10;;;6.30;99.90;;;;;;6243235;23;20012;-72
2021/03/09 05:56:06;;;;;;;22.98;14.05;;;6.30;99.90;;;;;;6244513;23;20001;-73
2021/03/09 05:58:32;;;;;;;25.15;15.20;;;6.40;99.90;;;;;;6244936;23;20000;-73
2021/03/09 06:00:58;;;;;;;26.38;15.80;;;6.30;99.90;;;;;;6218389;23;20000;-72
2021/03/09 06:03:27;;;;;;;23.70;14.52;;;6.30;99.90;;;;;;6244918;23;20071;-73
2021/03/09 06:05:53;;;;;;;26.05;15.20;;;6.30;99.90;;;;;;6244801;23;20008;-73
2021/03/09 06:08:19;;;;;;;24.85;14.90;;;6.30;99.90;;;;;;6245064;23;19996;-73
2021/03/09 06:10:45;;;;;;;41.80;14.90;;;6.30;99.90;;;;;;6244856;23;20004;-73
2021/03/09 06:13:34;;;;;;;24.13;14.77;;;6.30;99.90;;;;;;6244344;23;20035;-73
2021/03/09 06:16:00;;;;;;;26.02;15.05;;;6.30;99.90;;;;;;6245011;23;20004;-73
2021/03/09 06:18:26;;;;;;;23.33;14.35;;;6.40;99.90;;;;;;6245116;23;20046;-72
2021/03/09 06:21:11;;;;;;;30.90;15.27;;;6.50;99.90;;;;;;6244744;23;20422;-73
2021/03/09 06:23:38;;;;;;;29.73;14.93;;;6.50;99.90;;;;;;6244583;23;19997;-73
2021/03/09 06:26:24;;;;;;;28.05;15.32;;;6.50;99.90;;;;;;6244433;23;20004;-72
2021/03/09 06:29:05;;;;;;;28.42;14.68;;;6.60;99.90;;;;;;6244112;23;20003;-73
2021/03/09 06:31:30;;;;;;;28.67;14.38;;;6.60;99.90;;;;;;6244041;23;20011;-73
2021/03/09 06:34:20;;;;;;;24.52;14.57;;;6.60;99.90;;;;;;6243891;23;20012;-73
2021/03/09 06:37:07;;;;;;;29.52;14.93;;;6.70;99.90;;;;;;6243381;23;20357;-73
2021/03/09 06:39:48;;;;;;;22.90;13.77;;;6.80;99.90;;;;;;6215298;23;20317;-73
2021/03/09 06:42:16;;;;;;;26.10;15.10;;;6.80;99.90;;;;;;6244784;23;20421;-73
2021/03/09 06:44:41;;;;;;;29.48;14.63;;;6.80;99.90;;;;;;6244608;23;20063;-73
2021/03/09 06:47:07;;;;;;;28.17;14.75;;;6.90;99.90;;;;;;6244955;23;20385;-73
2021/03/09 06:49:54;;;;;;;27.02;16.33;;;7.10;99.90;;;;;;6245016;23;20433;-73
2021/03/09 06:52:21;;;;;;;33.45;16.58;;;7.20;99.90;;;;;;6245067;23;20008;-73
2021/03/09 06:54:52;;;;;;;27.67;15.80;;;7.40;99.90;;;;;;6244675;23;20000;-73
2021/03/09 06:57:18;;;;;;;25.52;14.70;;;7.50;99.90;;;;;;6243132;23;20031;-73
2021/03/09 06:59:49;;;;;;;26.10;15.10;;;7.60;99.90;;;;;;6243527;23;20004;-73
2021/03/09 07:02:24;;;;;;;32.30;14.97;;;7.70;99.90;;;;;;6244192;23;20003;-73
2021/03/09 07:05:13;;;;;;;26.65;14.05;;;7.70;99.90;;;;;;6244041;23;20031;-73
2021/03/09 07:07:42;;;;;;;23.92;14.10;;;7.90;99.90;;;;;;6242566;23;20019;-72
2021/03/09 07:10:10;;;;;;;23.42;15.15;;;7.90;99.90;;;;;;6243848;23;20004;-73
2021/03/09 07:12:38;;;;;;;26.13;12.52;;;8.00;99.90;;;;;;6243803;23;19996;-73
2021/03/09 07:15:07;;;;;;;25.42;14.77;;;8.00;99.90;;;;;;6243456;23;20035;-72
2021/03/09 07:17:34;;;;;;;24.75;14.30;;;8.10;99.90;;;;;;6216682;23;20334;-73
2021/03/09 07:20:01;;;;;;;25.50;14.45;;;8.30;99.90;;;;;;6243633;23;20074;-73
2021/03/09 07:22:29;;;;;;;22.52;14.18;;;8.50;99.90;;;;;;6242504;23;20749;-73
2021/03/09 07:24:58;;;;;;;23.58;14.10;;;8.60;99.90;;;;;;6244001;23;20015;-73
2021/03/09 07:27:48;;;;;;;22.25;14.48;;;8.70;99.90;;;;;;6217311;23;20012;-73
2021/03/09 07:30:15;;;;;;;22.58;14.55;;;8.80;99.90;;;;;;6243612;23;20035;-73
2021/03/09 07:32:48;;;;;;;23.48;14.63;;;8.80;99.90;;;;;;6216079;23;20023;-73
2021/03/09 07:35:15;;;;;;;27.75;13.38;;;8.90;99.90;;;;;;6243874;23;19997;-73
2021/03/09 07:37:42;;;;;;;27.63;13.88;;;9.00;99.90;;;;;;6244009;23;20008;-73
2021/03/09 07:40:16;;;;;;;26.55;14.98;;;9.00;99.90;;;;;;6242002;23;20008;-73
2021/03/09 07:42:42;;;;;;;21.50;13.95;;;9.10;99.90;;;;;;6243630;23;20318;-74
2021/03/09 07:45:35;;;;;;;31.88;14.35;;;9.10;99.90;;;;;;6242108;23;20460;-74
2021/03/09 07:48:02;;;;;;;20.42;13.32;;;9.40;99.90;;;;;;6237528;23;20012;-72
2021/03/09 07:50:48;;;;;;;21.10;13.32;;;9.60;99.90;;;;;;6243754;23;20079;-72
2021/03/09 07:53:21;;;;;;;22.60;13.35;;;9.80;99.90;;;;;;6243888;23;20083;-72
2021/03/09 07:55:48;;;;;;;23.75;14.07;;;9.90;99.90;;;;;;6243233;23;20000;-72
2021/03/09 07:58:25;;;;;;;24.20;13.98;;;10.00;99.90;;;;;;6243896;23;19996;-74
2021/03/09 08:01:03;;;;;;;26.83;13.82;;;10.20;99.90;;;;;;6243947;23;20004;-74
2021/03/09 08:03:39;;;;;;;25.58;14.95;;;10.10;99.90;;;;;;6242298;23;20005;-75
2021/03/09 08:06:14;;;;;;;23.63;14.10;;;10.20;99.90;;;;;;6243825;23;20004;-74
2021/03/09 08:08:54;;;;;;;19.02;12.98;;;10.10;99.90;;;;;;6243449;23;20000;-74
2021/03/09 08:11:25;;;;;;;30.02;14.15;;;10.20;99.90;;;;;;6243502;23;20000;-73
2021/03/09 08:14:03;;;;;;;20.25;13.07;;;10.20;99.90;;;;;;6216652;23;20020;-74
2021/03/09 08:16:34;;;;;;;24.83;12.20;;;10.00;99.90;;;;;;6243859;23;20049;-74
2021/03/09 08:19:05;;;;;;;29.35;13.65;;;10.20;99.90;;;;;;6242585;23;20103;-74
2021/03/09 08:21:52;;;;;;;25.77;13.30;;;10.30;99.90;;;;;;6242587;23;20448;-74
2021/03/09 08:24:20;;;;;;;19.25;12.68;;;10.40;99.50;;;;;;6243337;23;20429;-74
2021/03/09 08:26:48;;;;;;;21.33;13.00;;;10.60;99.20;;;;;;6243476;23;20055;-74
2021/03/09 08:29:29;;;;;;;22.65;13.05;;;10.80;99.00;;;;;;6215490;23;20557;-74
2021/03/09 08:32:30;;;;;;;21.13;13.15;;;11.10;98.40;;;;;;6242354;23;20007;-74
2021/03/09 08:35:14;;;;;;;20.35;12.52;;;11.30;98.20;;;;;;6242932;23;20008;-74
2021/03/09 08:37:44;;;;;;;19.25;12.43;;;11.90;97.60;;;;;;6242034;23;20000;-74
2021/03/09 08:40:14;;;;;;;18.73;11.88;;;12.40;96.70;;;;;;6242094;23;20267;-74
2021/03/09 08:43:02;;;;;;;21.13;11.75;;;12.70;96.00;;;;;;6244064;23;20085;-74
2021/03/09 08:45:38;;;;;;;24.20;11.10;;;12.70;95.60;;;;;;6243682;23;20314;-72
2021/03/09 08:48:05;;;;;;;21.70;10.85;;;12.80;95.00;;;;;;6243427;23;20027;-72
2021/03/09 08:50:41;;;;;;;21.85;11.70;;;13.20;94.30;;;;;;6243461;23;20004;-73
2021/03/09 08:53:30;;;;;;;23.23;12.65;;;13.50;93.00;;;;;;6236410;23;20420;-73
2021/03/09 08:56:04;;;;;;;25.85;11.85;;;12.90;93.50;;;;;;6243057;23;20012;-73
2021/03/09 08:58:30;;;;;;;16.48;10.63;;;12.80;93.50;;;;;;6241846;23;20008;-73
2021/03/09 09:00:57;;;;;;;19.55;11.25;;;12.90;93.00;;;;;;6243173;23;20035;-73
2021/03/09 09:03:32;;;;;;;20.10;11.73;;;12.90;92.70;;;;;;6242844;23;20012;-73
2021/03/09 09:05:59;;;;;;;24.50;11.20;;;13.10;91.90;;;;;;6243037;23;20404;-73
2021/03/09 09:08:25;;;;;;;23.60;11.35;;;13.30;91.70;;;;;;6242817;23;20011;-73
2021/03/09 09:10:51;;;;;;;23.60;10.98;;;13.60;91.40;;;;;;6241512;23;20326;-72
2021/03/09 09:13:32;;;;;;;19.98;10.63;;;13.50;91.20;;;;;;6242208;23;20008;-72
2021/03/09 09:15:59;;;;;;;13.23;9.73;;;13.80;90.90;;;;;;6241820;23;20434;-72
2021/03/09 09:18:26;;;;;;;15.23;9.73;;;14.00;90.70;;;;;;6242423;23;20087;-72
2021/03/09 09:20:53;;;;;;;15.80;10.60;;;14.00;90.40;;;;;;6242402;23;20004;-73
2021/03/09 09:23:21;;;;;;;25.27;11.40;;;13.80;90.00;;;;;;6243062;23;20008;-73
2021/03/09 09:25:53;;;;;;;16.13;10.07;;;13.80;89.80;;;;;;6242960;23;20079;-72
2021/03/09 09:28:28;;;;;;;13.98;9.32;;;13.70;89.80;;;;;;6243081;23;20001;-73
2021/03/09 09:31:16;;;;;;;27.63;11.32;;;13.70;89.60;;;;;;6217559;23;20015;-72
2021/03/09 09:33:49;;;;;;;17.42;10.20;;;13.90;89.20;;;;;;6243948;23;20023;-72
2021/03/09 09:36:15;;;;;;;19.35;13.27;;;14.30;88.50;;;;;;6244457;23;19996;-72
2021/03/09 09:38:40;;;;;;;18.13;11.43;;;14.20;87.70;;;;;;6244543;23;20004;-72
2021/03/09 09:41:06;;;;;;;23.25;12.63;;;14.30;87.40;;;;;;6244522;23;20071;-72
2021/03/09 09:43:33;;;;;;;25.92;15.48;;;14.20;87.10;;;;;;6244297;23;20142;-72
2021/03/09 09:46:15;;;;;;;15.82;10.77;;;14.70;86.70;;;;;;6244259;23;20345;-73
2021/03/09 09:48:41;;;;;;;;;;;14.80;85.80;;;;;;6244384;23;20011;-72
2021/03/09 09:51:15;;;;;;;14.30;9.70;;;14.60;85.00;;;;;;6244542;23;19899;-73
2021/03/09 09:53:43;;;;;;;14.65;9.65;;;14.70;84.50;;;;;;6244285;23;20040;-72
2021/03/09 09:56:11;;;;;;;23.92;13.75;;;14.90;84.10;;;;;;6217361;23;20047;-73
2021/03/09 09:58:57;;;;;;;21.42;13.38;;;14.50;84.60;;;;;;6244412;23;20015;-73
2021/03/09 10:01:32;;;;;;;17.60;10.43;;;14.00;85.70;;;;;;6244523;23;20014;-73
2021/03/09 10:03:59;;;;;;;21.00;12.45;;;13.80;85.60;;;;;;6244235;23;20416;-73
2021/03/09 10:06:27;;;;;;;24.05;10.45;;;13.70;86.00;;;;;;6244287;23;20066;-74
2021/03/09 10:08:54;;;;;;;21.65;11.85;;;13.50;86.20;;;;;;6244591;23;20038;-74
2021/03/09 10:11:21;;;;;;;23.15;10.75;;;13.30;87.00;;;;;;6244294;23;20007;-73
2021/03/09 10:13:47;;;;;;;15.27;10.70;;;13.50;86.70;;;;;;6217816;23;20015;-73
2021/03/09 10:16:13;;;;;;;37.95;21.85;;;13.60;85.80;;;;;;6243769;23;20046;-73
2021/03/09 10:18:39;;;;;;;18.75;10.90;;;13.60;87.20;;;;;;6243818;23;20079;-73
2021/03/09 10:21:10;;;;;;;25.75;15.68;;;13.70;85.50;;;;;;6244000;23;20000;-73
2021/03/09 10:23:55;;;;;;;19.25;12.55;;;13.70;85.90;;;;;;6244250;23;20000;-73
2021/03/09 10:26:27;;;;;;;15.48;10.27;;;13.50;86.10;;;;;;6244269;23;20075;-73
2021/03/09 10:29:22;;;;;;;;;;;13.40;85.70;;;;;;6244935;23;20035;-73
2021/03/09 10:31:53;;;;;;;18.13;10.45;;;13.40;86.10;;;;;;6211279;23;19904;-73
2021/03/09 10:34:21;;;;;;;15.18;10.35;;;13.60;86.20;;;;;;6244718;23;20054;-73
2021/03/09 10:37:00;;;;;;;27.75;16.10;;;13.40;86.50;;;;;;6245028;23;20030;-73
2021/03/09 10:39:27;;;;;;;23.13;11.00;;;13.40;86.60;;;;;;6243346;23;20434;-73
2021/03/09 10:41:53;;;;;;;25.10;12.65;;;13.60;86.10;;;;;;6242137;23;20457;-73
2021/03/09 10:44:35;;;;;;;16.52;10.93;;;13.70;85.80;;;;;;6244216;23;20020;-73
2021/03/09 10:47:02;;;;;;;;;;;13.80;85.50;;;;;;6245527;23;20411;-73
2021/03/09 10:49:29;;;;;;;18.05;10.75;;;13.70;86.30;;;;;;6244121;23;19906;-73
2021/03/09 10:52:00;;;;;;;22.08;13.25;;;13.70;86.20;;;;;;6244195;23;20012;-72
2021/03/09 10:54:26;;;;;;;19.30;9.80;;;13.80;86.40;;;;;;6243883;23;20000;-72
2021/03/09 10:56:52;;;;;;;19.73;12.48;;;14.00;84.50;;;;;;6243811;23;19996;-73
2021/03/09 10:59:18;;;;;;;13.93;10.13;;;14.00;84.90;;;;;;6242152;23;20361;-72
2021/03/09 11:01:44;;;;;;;20.08;10.23;;;14.00;84.30;;;;;;6243455;23;20330;-72
2021/03/09 11:04:10;;;;;;;20.38;12.70;;;14.10;84.30;;;;;;6242774;23;20009;-72
2021/03/09 11:06:35;;;;;;;18.80;9.82;;;14.20;85.40;;;;;;6244442;23;19997;-73
2021/03/09 11:09:01;;;;;;;14.95;9.85;;;14.20;84.50;;;;;;6242952;23;20015;-73
2021/03/09 11:11:27;;;;;;;16.90;10.55;;;14.20;83.70;;;;;;6244128;23;20007;-72
2021/03/09 11:13:52;;;;;;;24.30;14.88;;;14.20;84.90;;;;;;6211694;23;20024;-72
2021/03/09 11:16:18;;;;;;;15.40;10.05;;;14.10;83.60;;;;;;6242385;23;20413;-72
2021/03/09 11:18:44;;;;;;;15.43;9.43;;;14.10;84.10;;;;;;6242833;23;20000;-72
2021/03/09 11:21:10;;;;;;;13.50;9.25;;;14.20;83.70;;;;;;6243320;23;20004;-72
2021/03/09 11:23:37;;;;;;;18.95;10.30;;;14.30;84.50;;;;;;6243356;23;20000;-71
2021/03/09 11:26:03;;;;;;;16.17;9.82;;;14.40;82.60;;;;;;6243892;23;20011;-72
2021/03/09 11:28:28;;;;;;;16.38;9.73;;;14.30;82.50;;;;;;6243483;23;20004;-72
2021/03/09 11:30:54;;;;;;;17.30;10.35;;;14.30;83.00;;;;;;6244025;23;20396;-72
2021/03/09 11:33:20;;;;;;;19.58;10.27;;;14.30;82.80;;;;;;6242591;23;20011;-72
2021/03/09 11:35:45;;;;;;;15.23;9.48;;;14.40;82.90;;;;;;6243309;23;20376;-71
2021/03/09 11:38:11;;;;;;;15.32;10.52;;;14.40;82.80;;;;;;6242915;23;20356;-72
2021/03/09 11:40:37;;;;;;;14.20;9.45;;;14.40;82.70;;;;;;6243382;23;20004;-72
2021/03/09 11:43:03;;;;;;;20.83;11.98;;;14.40;81.90;;;;;;6243655;23;20004;-72
2021/03/09 11:45:29;;;;;;;21.02;14.25;;;14.30;83.20;;;;;;6243111;23;20020;-72
2021/03/09 11:47:55;;;;;;;14.70;10.07;;;14.30;83.50;;;;;;6242967;23;20008;-72
2021/03/09 11:50:21;;;;;;;18.77;10.38;;;14.10;83.60;;;;;;6244070;23;20010;-72
2021/03/09 11:52:47;;;;;;;39.92;23.58;;;14.30;83.80;;;;;;6243021;23;20079;-72
2021/03/09 11:55:13;;;;;;;15.63;9.68;;;14.30;83.10;;;;;;6243805;23;20024;-73
2021/03/09 11:57:39;;;;;;;14.38;8.93;;;14.40;81.30;;;;;;6216730;23;20015;-73
2021/03/09 12:00:06;;;;;;;16.83;9.38;;;14.50;82.10;;;;;;6217098;23;20027;-73
2021/03/09 12:02:32;;;;;;;16.40;10.10;;;14.60;82.60;;;;;;6243625;23;20414;-72
2021/03/09 12:04:57;;;;;;;13.82;9.07;;;14.60;81.90;;;;;;6242889;23;20014;-72
2021/03/09 12:07:23;;;;;;;17.67;8.98;;;14.60;82.40;;;;;;6242903;23;20003;-72
2021/03/09 12:09:49;;;;;;;13.73;9.10;;;14.60;81.60;;;;;;6243725;23;20015;-72
2021/03/09 12:12:14;;;;;;;19.85;9.75;;;14.60;81.60;;;;;;6242873;23;20004;-72
2021/03/09 12:14:40;;;;;;;16.73;9.68;;;14.60;82.00;;;;;;6243542;23;20058;-73
2021/03/09 12:17:06;;;;;;;19.25;9.23;;;14.60;80.80;;;;;;6243885;23;20004;-73
2021/03/09 12:19:32;;;;;;;16.33;8.15;;;14.60;81.20;;;;;;6243543;23;20004;-73
2021/03/09 12:21:57;;;;;;;15.93;10.23;;;14.60;81.30;;;;;;6243262;23;20054;-74
2021/03/09 12:24:23;;;;;;;16.40;9.57;;;14.60;81.20;;;;;;6243148;23;20079;-74
2021/03/09 12:26:49;;;;;;;14.00;9.18;;;14.70;81.70;;;;;;6243052;23;20046;-74
2021/03/09 12:29:18;;;;;;;13.93;9.45;;;14.70;82.10;;;;;;6243219;23;20425;-73
2021/03/09 12:31:44;;;;;;;15.57;9.13;;;14.80;80.30;;;;;;6243197;23;20011;-73
2021/03/09 12:34:10;;;;;;;16.88;10.60;;;14.80;80.80;;;;;;6243603;23;20058;-74
2021/03/09 12:36:36;;;;;;;14.88;9.40;;;14.80;80.90;;;;;;6243501;23;20000;-72
2021/03/09 12:39:02;;;;;;;13.27;9.18;;;14.70;80.70;;;;;;6242021;23;20031;-71
2021/03/09 12:41:28;;;;;;;16.65;10.65;;;14.70;80.70;;;;;;6243277;23;20416;-71
2021/03/09 12:43:54;;;;;;;12.85;8.48;;;14.60;80.30;;;;;;6243316;23;20039;-71
2021/03/09 12:46:19;;;;;;;14.40;9.07;;;14.60;80.90;;;;;;6242139;23;20035;-71